Terminal Aerodrome Forecast
Issued by NWS Atlanta, GA

Current Version | Previous Version | Text Only | Print | Product List | Glossary On
Versions: 1 2 3 4 5 6 7 8 9 10 11 12 13 14 15 16
115
FTUS42 KFFC 240520
TAFCSG
TAF
KCSG 240520Z 2406/2506 00000KT P6SM SCT250
     FM241500 21006KT P6SM FEW060
     FM250200 00000KT P6SM SKC=

USA.gov is the U.S. government's official web portal to all federal, state and local government web resources and services.